Time;durP1;ratioP1;P1;durP2;ratioP2;P2;SDS_P1;SDS_P2;PMS_P1;PMS_P2;Temp;Humidity;BMP_temperature;BMP_pressure;BME280_temperature;BME280_humidity;BME280_pressure;Samples;Min_cycle;Max_cycle;Signal;HPM_P1;HPM_P2
2022/11/14 00:02:20;;;;;;;;;;;11.20;59.50;;;10.04;61.09;102056.78;12184011;19;20018;-88
2022/11/14 00:06:40;;;;;;;32.47;19.42;;;11.20;59.30;;;10.01;61.01;102047.28;12177004;19;19930;-88
2022/11/14 00:11:01;;;;;;;31.95;18.98;;;11.30;59.50;;;10.00;61.20;102048.19;12171200;19;20014;-88
2022/11/14 00:15:22;;;;;;;31.15;19.45;;;11.20;59.50;;;10.00;61.02;102042.97;12175740;19;20022;-88
2022/11/14 00:19:43;;;;;;;31.25;18.92;;;11.20;59.50;;;9.90;61.06;102018.06;12183916;19;20866;-89
2022/11/14 00:24:04;;;;;;;34.03;18.35;;;11.10;59.50;;;9.99;61.14;102028.25;12180992;19;20022;-89
2022/11/14 00:28:24;;;;;;;33.13;18.92;;;11.10;59.40;;;10.00;61.05;102029.94;12183791;19;20022;-89
2022/11/14 00:32:44;;;;;;;35.60;19.77;;;11.10;59.40;;;10.01;61.16;102022.94;12180895;19;20019;-89
2022/11/14 00:37:05;;;;;;;32.70;18.35;;;11.10;59.40;;;9.99;61.08;102030.84;12181456;19;20117;-88
2022/11/14 00:41:26;;;;;;;32.88;19.23;;;11.10;59.30;;;9.90;60.95;102010.25;12182791;19;20022;-88
2022/11/14 00:45:47;;;;;;;33.72;18.73;;;11.20;59.60;;;9.87;61.03;102005.13;12177282;19;20010;-88
2022/11/14 00:50:08;;;;;;;31.00;18.73;;;11.10;59.20;;;9.83;61.07;102004.38;12181141;19;20933;-88
2022/11/14 00:54:29;;;;;;;35.78;19.95;;;11.00;59.30;;;9.82;61.02;102001.81;12178050;19;20026;-89
2022/11/14 00:58:49;;;;;;;36.60;20.10;;;11.00;59.30;;;9.74;61.23;101983.78;12184722;19;20026;-88
2022/11/14 01:03:10;;;;;;;35.75;20.02;;;11.10;59.70;;;9.51;61.29;101955.81;12180029;19;20455;-88
2022/11/14 01:07:30;;;;;;;37.28;20.02;;;10.90;59.50;;;9.68;61.18;101989.19;12181697;19;20015;-88
2022/11/14 01:11:50;;;;;;;28.45;16.80;;;10.90;59.50;;;9.72;61.24;101985.56;12182807;19;20010;-89
2022/11/14 01:16:11;;;;;;;34.13;19.15;;;10.90;59.40;;;9.66;61.15;101986.63;12183769;19;20014;-88
2022/11/14 01:20:32;;;;;;;35.63;18.98;;;10.80;59.30;;;9.66;61.29;101968.38;12178507;19;20014;-88
2022/11/14 01:24:54;;;;;;;36.05;18.55;;;10.90;59.30;;;9.61;61.10;101964.19;12173458;19;20078;-88
2022/11/14 01:29:14;;;;;;;35.28;18.55;;;10.90;59.30;;;9.69;61.20;101986.56;12177062;19;20015;-89
2022/11/14 01:33:34;;;;;;;35.55;18.88;;;10.80;59.30;;;9.61;61.15;101977.25;12181446;19;21004;-88
2022/11/14 01:37:54;;;;;;;36.33;19.88;;;10.80;59.50;;;9.64;61.19;101971.94;12182693;19;20395;-89
2022/11/14 01:42:15;;;;;;;32.00;18.25;;;10.80;59.60;;;9.57;61.36;101960.84;12182822;19;20014;-89
2022/11/14 01:46:40;;;;;;;38.90;19.73;;;10.80;59.70;;;9.61;61.11;101966.81;12180932;19;20014;-88
2022/11/14 01:51:27;;;;;;;35.80;19.92;;;10.70;59.80;;;9.52;61.50;101947.94;12180579;19;20003;-88
2022/11/14 01:55:47;;;;;;;40.45;20.88;;;10.70;59.90;;;9.51;61.25;101934.97;12175461;19;20018;-89
2022/11/14 02:00:11;;;;;;;34.17;19.17;;;10.70;60.10;;;9.57;61.55;101945.19;12175327;19;20716;-89
2022/11/14 02:04:38;;;;;;;36.20;19.33;;;10.70;60.10;;;9.59;61.36;101937.34;12177853;19;20022;-89
2022/11/14 02:09:06;;;;;;;35.55;19.52;;;10.80;60.00;;;9.59;61.42;101926.91;12176832;19;20773;-88
2022/11/14 02:13:27;;;;;;;34.15;19.50;;;10.80;60.20;;;9.53;61.43;101907.94;12162840;19;20565;-89
2022/11/14 02:17:48;;;;;;;45.40;22.13;;;10.70;60.00;;;9.59;61.58;101922.53;12176549;19;20023;-88
2022/11/14 02:22:08;;;;;;;38.88;21.15;;;10.80;60.30;;;9.51;61.42;101901.06;12178180;19;20853;-89
2022/11/14 02:26:29;;;;;;;38.75;19.15;;;10.80;60.20;;;9.58;61.33;101913.00;12177531;19;20389;-89
2022/11/14 02:30:50;;;;;;;35.15;18.10;;;10.80;60.10;;;9.59;61.54;101904.28;12180259;19;20014;-88
2022/11/14 02:35:11;;;;;;;33.85;19.40;;;10.80;60.00;;;9.52;61.40;101874.09;12166381;19;20301;-89
2022/11/14 02:39:32;;;;;;;40.58;20.40;;;10.80;59.90;;;9.57;61.65;101877.41;12186721;19;20022;-88
2022/11/14 02:43:52;;;;;;;36.58;18.60;;;10.80;59.90;;;9.39;61.56;101841.47;12197146;19;20054;-88
2022/11/14 02:48:13;;;;;;;36.80;18.45;;;10.80;59.80;;;9.53;61.39;101870.56;12198632;19;20018;-89
2022/11/14 02:52:33;;;;;;;38.13;18.05;;;10.80;59.70;;;9.53;61.66;101860.13;12196412;19;20018;-90
2022/11/14 02:56:54;;;;;;;36.38;17.45;;;10.80;59.70;;;9.40;61.49;101846.66;12198580;19;20457;-89
2022/11/14 03:01:14;;;;;;;34.67;18.27;;;10.80;59.70;;;9.58;61.62;101863.44;12198177;19;20391;-89
2022/11/14 03:05:35;;;;;;;39.75;20.33;;;10.70;59.60;;;9.40;61.46;101832.78;12190453;19;20394;-89
2022/11/14 03:09:55;;;;;;;31.88;17.13;;;10.70;59.70;;;9.57;61.62;101863.50;12197526;19;20321;-90
2022/11/14 03:14:16;;;;;;;32.45;17.77;;;10.70;59.70;;;9.58;61.55;101866.06;12192739;19;20022;-88
2022/11/14 03:18:36;;;;;;;43.97;19.13;;;10.70;59.80;;;9.56;61.53;101854.84;12194107;19;20014;-88
2022/11/14 03:22:57;;;;;;;34.85;19.00;;;10.70;59.90;;;9.51;61.57;101841.09;12193288;19;20010;-89
2022/11/14 03:27:19;;;;;;;32.90;17.85;;;10.90;60.00;;;9.45;61.79;101846.50;12195404;19;20026;-89
2022/11/14 03:31:40;;;;;;;39.72;20.05;;;10.70;59.90;;;9.41;61.73;101834.47;12190921;19;20082;-89
2022/11/14 03:36:01;;;;;;;35.40;18.10;;;10.70;59.90;;;9.48;61.85;101849.03;12189814;19;20376;-89
2022/11/14 03:40:20;;;;;;;39.17;20.70;;;10.70;59.90;;;9.45;61.70;101841.28;12185497;19;20011;-89
2022/11/14 03:44:40;;;;;;;36.58;18.13;;;10.80;59.90;;;9.19;61.54;101793.47;12179511;19;20014;-89
2022/11/14 03:49:01;;;;;;;34.00;17.50;;;10.60;59.80;;;9.13;61.70;101774.53;12188382;19;20613;-89
2022/11/14 03:53:22;;;;;;;33.90;17.73;;;10.70;59.80;;;9.47;61.79;101818.63;12189594;19;20395;-89
2022/11/14 03:57:42;;;;;;;32.40;16.65;;;10.70;59.70;;;9.47;61.75;101829.06;12192978;19;20014;-89
2022/11/14 04:02:03;;;;;;;33.50;17.17;;;10.70;59.70;;;9.34;61.75;101806.88;12191552;19;20018;-89
2022/11/14 04:06:23;;;;;;;38.92;18.92;;;10.60;59.70;;;9.38;61.92;101800.69;12184861;19;20970;-88
2022/11/14 04:10:47;;;;;;;37.42;18.02;;;10.60;59.80;;;9.40;61.68;101802.34;12186095;19;20469;-88
2022/11/14 04:15:09;;;;;;;40.13;18.88;;;10.60;59.70;;;9.43;61.59;101802.25;12183024;19;20022;-89
2022/11/14 04:19:29;;;;;;;35.75;17.80;;;10.60;59.70;;;9.34;61.76;101799.06;12178897;19;20014;-85
2022/11/14 04:23:49;;;;;;;33.47;17.50;;;10.60;59.60;;;9.42;61.70;101810.94;12117492;19;20455;-85
2022/11/14 04:28:11;;;;;;;38.25;18.70;;;10.60;59.70;;;9.31;61.52;101792.19;12106630;19;20373;-85
2022/11/14 04:32:31;;;;;;;35.05;17.50;;;10.60;59.70;;;9.38;61.73;101798.94;12097854;19;20082;-85
2022/11/14 04:36:52;;;;;;;35.60;17.40;;;10.60;59.80;;;9.27;61.83;101794.06;12099299;19;20379;-85
2022/11/14 04:41:13;;;;;;;37.30;18.10;;;10.50;59.80;;;9.28;61.78;101785.34;12100819;19;20023;-85
2022/11/14 04:45:33;;;;;;;40.83;20.30;;;10.50;59.80;;;9.37;61.81;101792.03;12100404;19;20019;-86
2022/11/14 04:49:54;;;;;;;40.08;19.33;;;10.50;60.50;;;9.28;61.78;101777.50;12111543;19;20482;-85
2022/11/14 04:54:14;;;;;;;40.13;20.95;;;10.50;59.90;;;9.36;61.72;101790.28;12106586;19;20284;-85
2022/11/14 04:58:35;;;;;;;34.55;17.50;;;10.50;60.00;;;9.26;61.85;101770.66;12103640;19;20382;-85
2022/11/14 05:02:58;;;;;;;46.17;21.27;;;10.50;59.90;;;9.26;61.73;101781.94;12102762;19;20014;-85
2022/11/14 05:07:19;;;;;;;41.17;19.35;;;10.50;60.00;;;9.16;61.75;101759.69;12100612;19;20340;-85
2022/11/14 05:11:40;;;;;;;37.97;19.48;;;10.40;59.90;;;9.29;61.78;101789.66;12101607;19;20018;-85
2022/11/14 05:16:00;;;;;;;36.50;18.02;;;10.40;59.90;;;9.28;61.81;101792.31;12096654;19;20022;-84
2022/11/14 05:20:21;;;;;;;38.15;18.63;;;10.40;59.90;;;9.24;61.89;101775.06;12098720;19;20744;-85
2022/11/14 05:24:42;;;;;;;40.78;19.70;;;10.40;60.00;;;9.27;61.72;101781.03;12096747;19;20849;-84
2022/11/14 05:29:03;;;;;;;48.00;21.40;;;10.40;60.10;;;9.19;61.96;101764.78;12156003;19;20030;-85
2022/11/14 05:33:23;;;;;;;39.53;20.33;;;10.40;60.10;;;9.13;61.86;101764.13;12146962;19;20022;-84
2022/11/14 05:37:43;;;;;;;45.92;20.92;;;10.40;60.00;;;9.22;61.87;101789.91;12151352;19;20105;-84
2022/11/14 05:42:05;;;;;;;42.80;17.95;;;10.30;60.10;;;9.21;61.83;101789.06;12153753;19;20018;-83
2022/11/14 05:46:25;;;;;;;42.28;20.42;;;10.40;60.20;;;9.14;62.00;101776.28;12149331;19;20026;-83
2022/11/14 05:50:45;;;;;;;37.25;19.20;;;10.30;60.40;;;9.13;62.00;101772.81;12108266;19;20488;-84
2022/11/14 05:55:06;;;;;;;35.05;17.35;;;10.30;60.30;;;9.21;61.88;101776.03;12094964;19;20024;-84
2022/11/14 05:59:27;;;;;;;37.15;17.83;;;10.30;60.10;;;9.09;61.99;101758.16;12101245;19;20427;-84
2022/11/14 06:03:47;;;;;;;35.95;17.25;;;10.40;60.10;;;9.25;61.82;101769.78;12114853;19;20407;-84
2022/11/14 06:08:09;;;;;;;38.72;18.63;;;10.40;60.10;;;9.19;61.94;101766.56;12112612;19;20454;-84
2022/11/14 06:12:31;;;;;;;40.78;19.15;;;10.40;60.10;;;9.17;62.04;101755.31;12101445;19;20019;-84
2022/11/14 06:16:52;;;;;;;42.08;20.73;;;10.50;60.30;;;9.14;61.85;101756.28;12107301;19;20014;-83
2022/11/14 06:21:19;;;;;;;41.60;19.20;;;10.40;60.30;;;9.13;61.85;101761.53;12108632;19;20800;-84
2022/11/14 06:25:39;;;;;;;38.25;18.63;;;10.40;60.30;;;9.14;62.02;101764.09;12101519;19;20489;-84
2022/11/14 06:30:00;;;;;;;40.05;18.95;;;10.30;60.10;;;9.19;62.10;101767.41;12109359;19;20042;-84
2022/11/14 06:34:21;;;;;;;46.80;21.60;;;10.40;60.50;;;9.17;61.92;101758.78;12104314;19;20019;-84
2022/11/14 06:38:42;;;;;;;47.65;22.25;;;10.30;60.50;;;9.16;61.92;101757.09;12107936;19;20022;-84
2022/11/14 06:43:03;;;;;;;41.38;20.58;;;10.30;60.30;;;9.17;62.02;101768.34;12111305;19;20014;-84
2022/11/14 06:47:23;;;;;;;44.30;21.60;;;10.30;60.30;;;8.91;61.85;101730.97;12099836;19;20018;-84
2022/11/14 06:51:44;;;;;;;38.30;19.25;;;10.50;60.50;;;9.11;62.10;101758.97;12100400;19;20788;-84
2022/11/14 06:56:07;;;;;;;38.25;20.52;;;10.30;61.00;;;9.12;62.16;101778.91;12105774;19;20018;-84
2022/11/14 07:00:28;;;;;;;38.22;17.67;;;10.30;60.60;;;9.09;61.96;101781.63;12103357;19;20022;-83
2022/11/14 07:04:48;;;;;;;35.08;18.08;;;10.30;60.50;;;8.96;61.97;101752.50;12100285;19;20007;-84
2022/11/14 07:09:10;;;;;;;48.30;22.92;;;10.30;60.40;;;9.08;62.21;101770.34;12100441;19;20010;-84
2022/11/14 07:13:31;;;;;;;39.00;18.65;;;10.30;60.80;;;9.04;62.25;101757.47;12104268;19;20018;-84
2022/11/14 07:17:52;;;;;;;41.03;18.50;;;10.20;60.50;;;8.98;62.18;101747.25;12103232;19;20327;-84
2022/11/14 07:22:12;;;;;;;38.15;18.08;;;10.20;60.40;;;8.93;62.10;101741.34;12104080;19;20014;-85
2022/11/14 07:26:33;;;;;;;39.88;18.23;;;10.20;60.40;;;9.06;62.16;101761.72;12102577;19;20014;-84
2022/11/14 07:30:53;;;;;;;41.05;19.48;;;10.20;60.30;;;9.12;62.17;101776.31;12105443;19;20022;-85
2022/11/14 07:35:14;;;;;;;39.63;19.63;;;10.20;60.40;;;9.02;62.17;101765.34;12107791;19;20090;-84
2022/11/14 07:39:34;;;;;;;39.85;19.20;;;10.50;60.90;;;8.99;62.19;101759.34;12105464;19;20022;-85
2022/11/14 07:43:56;;;;;;;42.95;19.83;;;10.30;60.70;;;9.09;62.26;101766.00;12106689;19;20862;-85
2022/11/14 07:48:17;;;;;;;41.67;19.30;;;10.30;60.80;;;9.05;62.07;101749.63;12108165;19;20367;-84
2022/11/14 07:52:37;;;;;;;36.40;17.55;;;10.30;60.70;;;9.12;62.10;101750.25;12107951;19;20374;-85
2022/11/14 07:56:58;;;;;;;40.47;18.75;;;10.30;60.60;;;9.11;62.35;101751.16;12109678;19;20042;-86
2022/11/14 08:01:18;;;;;;;37.55;16.48;;;10.30;60.70;;;9.09;62.29;101753.81;12122876;19;20903;-85
2022/11/14 08:05:39;;;;;;;28.20;15.60;;;10.30;60.60;;;9.12;62.34;101750.25;12154435;19;20442;-85
2022/11/14 08:09:59;;;;;;;36.35;17.13;;;10.30;60.50;;;9.19;62.21;101766.56;12160702;19;20299;-86
2022/11/14 08:14:20;;;;;;;35.10;15.23;;;10.40;60.60;;;9.19;62.32;101767.41;12149135;19;20706;-86
2022/11/14 08:18:40;;;;;;;32.20;15.93;;;10.40;60.50;;;9.20;62.42;101756.06;12160294;19;20011;-85
2022/11/14 08:23:08;;;;;;;41.33;18.02;;;10.40;60.40;;;9.09;62.33;101734.72;12152437;19;20884;-84
2022/11/14 08:27:28;;;;;;;42.97;19.52;;;10.50;60.50;;;9.20;62.24;101747.41;12161177;19;20038;-85
2022/11/14 08:31:49;;;;;;;37.33;17.58;;;10.40;60.30;;;9.05;62.37;101728.78;12165086;19;21255;-85
2022/11/14 08:36:10;;;;;;;43.45;19.60;;;10.40;60.30;;;9.14;62.41;101734.56;12154254;19;20941;-86
2022/11/14 08:40:31;;;;;;;35.20;18.00;;;10.40;60.50;;;8.83;62.25;101684.34;12158687;19;20034;-84
2022/11/14 08:44:51;;;;;;;35.38;16.40;;;10.30;60.40;;;9.15;62.25;101725.84;12144170;19;20391;-86
2022/11/14 08:49:12;;;;;;;34.47;16.58;;;10.30;60.10;;;9.08;62.21;101718.25;12166144;19;20403;-85
2022/11/14 08:53:33;;;;;;;33.08;16.67;;;10.40;60.30;;;8.96;62.42;101686.53;12150068;19;20022;-85
2022/11/14 08:57:54;;;;;;;32.65;16.55;;;10.40;60.50;;;9.19;62.49;101736.13;12158965;19;20010;-85
2022/11/14 09:02:14;;;;;;;33.65;16.50;;;10.40;60.60;;;9.01;62.55;101688.06;12162753;19;21060;-85
2022/11/14 09:06:35;;;;;;;30.60;15.30;;;10.60;60.60;;;9.31;62.51;101725.28;12160180;19;20437;-86
2022/11/14 09:11:01;;;;;;;37.75;18.00;;;10.70;60.70;;;9.30;62.49;101717.53;12156476;19;20014;-85
2022/11/14 09:15:22;;;;;;;42.85;19.83;;;10.50;60.50;;;9.41;62.48;101709.34;12161411;19;20026;-85
2022/11/14 09:19:42;;;;;;;33.88;16.55;;;10.50;60.60;;;9.27;62.62;101683.75;12165093;19;20085;-85
2022/11/14 09:24:03;;;;;;;45.10;21.52;;;10.60;60.70;;;9.51;62.49;101708.13;12158766;19;20777;-85
2022/11/14 09:28:24;;;;;;;38.38;19.58;;;10.70;61.10;;;9.45;62.49;101682.25;12162981;19;20015;-85
2022/11/14 09:32:44;;;;;;;45.58;20.73;;;10.70;60.90;;;9.66;62.56;101702.34;12148493;19;20010;-85
2022/11/14 09:37:05;;;;;;;39.85;19.42;;;10.80;61.10;;;9.62;62.65;101685.13;12140087;19;20014;-85
2022/11/14 09:41:44;;;;;;;39.92;20.67;;;11.10;61.20;;;9.84;62.58;101700.84;12153321;19;20018;-85
2022/11/14 09:46:26;;;;;;;35.80;18.45;;;11.00;60.90;;;9.90;62.45;101686.72;12157161;19;20514;-85
2022/11/14 09:51:19;;;;;;;36.67;17.92;;;11.10;60.70;;;9.90;62.60;101668.47;12169782;19;20094;-87
2022/11/14 09:55:39;;;;;;;45.38;21.77;;;11.20;60.60;;;10.07;62.49;101671.31;12164488;19;20014;-86
2022/11/14 10:00:01;;;;;;;34.42;18.50;;;11.40;60.30;;;10.19;62.76;101660.38;12168303;19;20307;-86
2022/11/14 10:04:58;;;;;;;34.85;15.88;;;11.50;60.20;;;10.40;62.52;101682.22;12168273;19;20014;-86
2022/11/14 10:09:42;;;;;;;31.58;16.60;;;11.60;60.00;;;10.54;62.59;101676.47;12172217;19;20022;-86
2022/11/14 10:14:43;;;;;;;35.78;17.00;;;11.80;59.80;;;10.53;62.44;101643.44;12166089;19;20027;-87
2022/11/14 10:19:25;;;;;;;28.02;15.60;;;11.90;59.50;;;10.54;62.58;101629.44;12165551;19;20587;-86
2022/11/14 10:24:19;;;;;;;35.63;17.75;;;11.90;59.40;;;10.78;62.71;101658.09;12167097;19;20951;-87
2022/11/14 10:29:20;;;;;;;30.30;16.35;;;12.00;59.40;;;10.87;62.64;101657.72;12166315;19;20011;-87
2022/11/14 10:33:46;;;;;;;28.10;15.07;;;12.10;59.40;;;10.96;62.57;101644.25;12162700;19;20058;-86
2022/11/14 10:38:17;;;;;;;30.58;15.77;;;12.20;59.50;;;11.04;62.72;101650.03;12162161;19;20014;-85
2022/11/14 10:42:42;;;;;;;36.33;17.95;;;12.30;59.30;;;11.11;62.58;101637.53;12158809;19;20015;-86
2022/11/14 10:47:08;;;;;;;34.85;17.35;;;12.40;59.10;;;11.21;62.29;101633.63;12147196;19;20018;-86
2022/11/14 10:51:46;;;;;;;33.88;17.17;;;12.50;59.00;;;11.26;62.34;101602.03;12160228;19;20015;-85
2022/11/14 10:56:14;;;;;;;35.47;18.27;;;12.60;59.00;;;11.05;62.25;101556.78;12159113;19;20850;-86
2022/11/14 11:00:34;;;;;;;29.88;15.82;;;12.60;58.80;;;11.46;62.41;101615.09;12176571;19;20367;-87
2022/11/14 11:05:14;;;;;;;29.23;15.50;;;12.70;58.90;;;11.44;62.28;101603.84;12185080;19;20014;-86
2022/11/14 11:14:18;;;;;;;29.65;14.77;;;12.80;58.90;;;11.64;62.46;101589.03;12180113;19;20283;-86
2022/11/14 11:18:39;;;;;;;26.45;14.10;;;13.00;58.80;;;11.57;62.34;101570.13;12177616;19;20544;-86
2022/11/14 11:23:10;;;;;;;25.95;15.07;;;13.00;58.60;;;11.78;62.08;101583.16;12174757;19;20019;-85
2022/11/14 11:27:31;;;;;;;29.83;15.88;;;13.00;58.40;;;11.56;62.07;101536.19;12175824;19;20475;-86
2022/11/14 11:31:57;;;;;;;23.83;14.52;;;13.10;58.30;;;11.75;62.12;101547.50;12171030;19;20018;-86
2022/11/14 11:36:19;;;;;;;22.73;13.93;;;13.10;58.20;;;11.80;62.24;101547.28;12179803;19;20011;-87
2022/11/14 11:40:45;;;;;;;25.88;13.77;;;13.20;58.40;;;11.97;62.16;101555.22;12174270;19;20010;-86
2022/11/14 11:45:16;;;;;;;23.67;13.93;;;13.20;58.40;;;11.99;61.97;101548.16;12168681;19;20019;-86
2022/11/14 11:49:49;;;;;;;23.25;12.93;;;13.30;58.30;;;12.11;61.77;101542.31;12172493;19;20367;-86
2022/11/14 11:54:18;;;;;;;24.10;13.93;;;13.40;58.00;;;12.15;61.82;101528.16;12172973;19;20730;-86
2022/11/14 11:58:54;;;;;;;24.77;14.68;;;13.40;58.10;;;12.24;61.88;101536.50;12170082;19;20022;-85
2022/11/14 12:03:15;;;;;;;24.80;14.98;;;13.50;57.90;;;12.27;61.74;101533.72;12167175;19;20207;-86
2022/11/14 12:08:10;;;;;;;21.45;13.05;;;13.50;57.90;;;12.31;61.63;101524.78;12166167;19;20015;-87
2022/11/14 12:12:56;;;;;;;22.88;12.25;;;13.60;58.10;;;12.44;61.83;101538.09;12170546;19;20010;-91
2022/11/14 12:17:34;;;;;;;24.25;14.45;;;13.70;58.10;;;12.51;61.65;101540.34;12172019;19;20026;-87
2022/11/14 12:22:22;;;;;;;19.23;12.82;;;13.70;57.70;;;12.56;61.68;101525.25;12173036;19;20014;-85
2022/11/14 12:27:23;;;;;;;23.52;13.73;;;13.80;57.80;;;12.56;61.65;101525.25;12169994;19;20042;-87
2022/11/14 12:31:45;;;;;;;19.00;12.48;;;13.90;57.50;;;12.62;61.50;101519.69;12175847;19;20055;-85
2022/11/14 12:36:11;;;;;;;19.25;11.88;;;13.90;57.70;;;12.71;61.61;101510.50;12177356;19;20015;-86
2022/11/14 12:40:39;;;;;;;20.83;12.32;;;13.90;57.60;;;12.66;61.44;101499.41;12174903;19;20498;-85
2022/11/14 12:45:00;;;;;;;18.13;12.35;;;14.00;57.60;;;12.86;61.28;101514.13;12170012;19;20007;-86
2022/11/14 12:49:46;;;;;;;18.13;11.52;;;14.00;57.50;;;12.91;61.43;101514.72;12175265;19;20019;-85
2022/11/14 12:54:45;;;;;;;21.85;12.45;;;14.10;57.40;;;12.96;61.32;101514.47;12164060;19;20066;-86
2022/11/14 12:59:38;;;;;;;18.92;12.02;;;14.20;57.50;;;12.94;61.26;101495.38;12167397;19;20022;-86
2022/11/14 13:04:49;;;;;;;16.95;10.80;;;14.20;57.50;;;13.03;61.46;101500.97;12160415;19;20014;-86
2022/11/14 13:10:16;;;;;;;16.83;11.52;;;14.30;57.20;;;13.14;61.25;101510.03;12163894;19;20014;-86
2022/11/14 13:24:18;;;;;;;16.08;10.88;;;14.40;57.10;;;13.31;61.07;101488.16;12170302;19;20019;-87
2022/11/14 13:28:49;;;;;;;15.82;10.88;;;14.50;57.30;;;13.31;61.29;101493.41;12171669;19;20803;-86
2022/11/14 13:33:43;;;;;;;15.05;10.30;;;14.50;57.00;;;13.30;61.01;101484.69;12169828;19;20479;-86
2022/11/14 13:38:32;;;;;;;14.02;9.77;;;14.50;57.00;;;13.39;61.03;101499.09;12168483;19;20018;-86
2022/11/14 13:43:12;;;;;;;14.68;9.68;;;14.60;57.30;;;13.39;60.85;101485.97;12167732;19;20442;-87
2022/11/14 13:48:11;;;;;;;15.00;9.98;;;14.60;57.30;;;13.44;60.85;101489.19;12165153;19;20295;-86
2022/11/14 13:52:38;;;;;;;17.60;10.13;;;14.60;57.30;;;13.41;60.85;101471.84;12161385;19;20875;-87
2022/11/14 13:57:49;;;;;;;12.65;8.98;;;14.70;57.20;;;13.43;60.82;101475.22;12162757;19;20018;-86
2022/11/14 14:02:10;;;;;;;13.32;8.75;;;14.60;57.10;;;13.47;60.86;101462.78;12160938;19;21161;-86
2022/11/14 14:07:01;;;;;;;14.25;9.02;;;14.60;57.20;;;13.39;60.75;101460.56;12167387;19;20600;-86
2022/11/14 14:11:59;;;;;;;12.25;9.40;;;14.60;57.20;;;13.44;60.71;101466.41;12158767;19;20349;-85
2022/11/14 14:16:34;;;;;;;13.90;8.65;;;14.60;57.00;;;13.23;60.61;101425.59;12158513;19;20473;-85
2022/11/14 14:21:42;;;;;;;13.95;8.85;;;14.60;57.20;;;13.46;60.75;101458.47;12161818;19;20721;-86
2022/11/14 14:26:24;;;;;;;12.50;7.97;;;14.60;57.30;;;13.48;60.71;101461.88;12145569;19;20019;-86
2022/11/14 14:31:11;;;;;;;15.50;8.60;;;14.60;57.20;;;13.36;60.61;101439.75;12157527;19;20097;-86
2022/11/14 14:35:34;;;;;;;13.57;9.40;;;14.60;57.10;;;13.34;60.54;101435.53;12164926;19;20333;-86
2022/11/14 14:40:07;;;;;;;13.73;9.25;;;14.50;57.20;;;13.41;60.60;101450.84;12178513;19;20367;-86
2022/11/14 14:44:36;;;;;;;13.82;9.05;;;14.50;57.10;;;13.16;60.51;101405.91;12177269;19;20018;-85
2022/11/14 14:48:59;;;;;;;14.13;8.65;;;14.50;57.00;;;13.33;60.60;101439.09;12178074;19;20019;-86
2022/11/14 14:53:23;;;;;;;12.00;8.13;;;14.50;57.10;;;13.27;60.37;101430.63;12177386;19;20716;-84
2022/11/14 14:57:43;;;;;;;11.55;7.38;;;14.40;56.90;;;13.01;60.26;101404.94;12178885;19;20280;-86
2022/11/14 15:02:18;;;;;;;11.35;7.28;;;14.30;56.90;;;13.03;60.12;101422.28;12180042;19;20028;-85
2022/11/14 15:06:38;;;;;;;10.30;7.30;;;14.20;56.90;;;12.93;60.12;101407.16;12174966;19;20018;-86
2022/11/14 15:11:00;;;;;;;9.35;6.90;;;14.10;56.90;;;12.93;60.19;101417.63;12177122;19;20058;-85
2022/11/14 15:15:24;;;;;;;11.15;7.97;;;14.10;57.00;;;12.88;60.24;101424.91;12172136;19;20015;-85
2022/11/14 15:19:46;;;;;;;10.57;7.28;;;14.00;56.90;;;12.69;60.06;101409.31;12168567;19;20014;-85
2022/11/14 15:24:21;;;;;;;9.85;7.63;;;13.90;56.90;;;12.48;60.07;101396.44;12163453;19;20727;-85
2022/11/14 15:28:43;;;;;;;11.77;7.88;;;13.80;57.00;;;12.56;60.06;101409.13;12167505;19;20098;-86
2022/11/14 15:33:25;;;;;;;12.70;8.43;;;13.70;56.90;;;12.34;59.82;101397.16;12164559;19;20011;-85
2022/11/14 15:38:10;;;;;;;11.38;8.30;;;13.60;56.80;;;12.37;59.85;101410.06;12165378;19;20010;-85
2022/11/14 15:42:31;;;;;;;10.18;7.40;;;13.50;56.90;;;12.28;59.98;101407.91;12167079;19;20022;-85
2022/11/14 15:46:51;;;;;;;9.95;7.55;;;13.30;57.00;;;12.18;60.00;101404.09;12144354;19;20022;-86
2022/11/14 15:51:12;;;;;;;11.15;7.53;;;13.20;57.10;;;12.11;60.01;101406.16;12128460;19;20036;-86
2022/11/14 15:55:33;;;;;;;10.57;7.18;;;13.10;57.20;;;12.08;59.93;101392.41;12133977;19;20594;-87
2022/11/14 15:59:53;;;;;;;10.75;8.10;;;13.10;57.30;;;11.99;59.90;101390.22;12134272;19;21015;-85
2022/11/14 16:04:24;;;;;;;11.15;8.38;;;13.00;57.30;;;11.86;59.89;101388.25;12160989;19;20019;-85
2022/11/14 16:08:45;;;;;;;11.25;7.78;;;12.90;57.10;;;11.90;59.99;101399.38;12171379;19;20026;-86
2022/11/14 16:13:05;;;;;;;11.38;8.60;;;12.90;57.20;;;11.74;59.88;101386.19;12170774;19;20470;-86
2022/11/14 16:17:26;;;;;;;11.48;8.07;;;12.80;57.10;;;11.69;59.77;101393.41;12167026;19;20878;-86
2022/11/14 16:21:47;;;;;;;14.07;9.52;;;12.70;57.10;;;11.57;59.81;101387.03;12171218;19;20109;-86
2022/11/14 16:26:08;;;;;;;12.82;8.65;;;12.60;57.10;;;11.45;59.88;101380.63;12040663;19;20472;-86
2022/11/14 16:30:28;;;;;;;14.10;9.20;;;12.50;57.20;;;11.41;59.83;101389.53;11955441;19;20300;-86
2022/11/14 16:34:49;;;;;;;12.15;7.93;;;12.50;57.30;;;11.41;60.04;101410.44;11949266;19;20404;-86
2022/11/14 16:39:12;;;;;;;12.35;8.23;;;12.30;57.30;;;11.26;60.05;101398.09;11969492;19;20026;-86
2022/11/14 16:43:32;;;;;;;12.73;8.50;;;12.30;57.40;;;11.07;59.87;101370.22;11952826;19;20503;-86
2022/11/14 16:47:52;;;;;;;11.13;7.72;;;12.20;57.40;;;11.23;59.95;101403.47;11945095;19;20018;-87
2022/11/14 16:52:14;;;;;;;12.40;7.78;;;12.20;57.40;;;11.12;60.15;101390.06;11985303;19;20018;-86
2022/11/14 16:56:34;;;;;;;12.23;8.20;;;12.20;57.50;;;11.03;59.81;101386.94;12163339;19;20026;-86
2022/11/14 17:00:54;;;;;;;11.82;8.50;;;12.10;57.40;;;11.08;59.94;101399.81;12165711;19;20014;-87
2022/11/14 17:05:15;;;;;;;13.30;8.32;;;12.00;57.40;;;10.96;60.07;101393.38;12164710;19;20094;-85
2022/11/14 17:09:35;;;;;;;12.20;7.25;;;12.00;57.50;;;10.90;59.76;101393.66;12165040;19;20342;-86
2022/11/14 17:13:57;;;;;;;12.98;8.38;;;11.90;57.40;;;10.83;60.08;101389.66;12166149;19;20342;-86
2022/11/14 17:18:18;;;;;;;10.73;7.30;;;11.80;57.40;;;10.72;59.77;101397.97;12167828;19;20399;-85
2022/11/14 17:22:38;;;;;;;12.27;7.65;;;11.70;57.30;;;10.42;60.03;101361.00;12158543;19;20003;-85
2022/11/14 17:26:58;;;;;;;13.65;8.90;;;11.60;57.40;;;10.39;59.93;101355.91;12161163;19;20414;-85
2022/11/14 17:31:19;;;;;;;12.65;8.20;;;11.60;57.60;;;10.56;60.01;101410.88;12163106;19;20026;-84
2022/11/14 17:35:39;;;;;;;11.02;8.05;;;11.50;57.70;;;10.25;60.05;101364.31;12165236;19;20358;-84
2022/11/14 17:39:59;;;;;;;10.38;8.15;;;11.40;57.70;;;10.40;59.94;101392.41;12166443;19;20492;-84
2022/11/14 17:44:20;;;;;;;11.75;8.98;;;11.40;57.70;;;10.40;60.20;101402.00;12170888;19;20007;-84
2022/11/14 17:48:41;;;;;;;12.60;8.85;;;11.50;57.80;;;10.33;60.12;101392.75;12158802;19;20602;-85
2022/11/14 17:53:04;;;;;;;13.43;8.48;;;11.30;57.80;;;10.30;60.11;101398.09;12152076;19;20014;-85
2022/11/14 17:57:24;;;;;;;12.20;8.65;;;11.30;57.90;;;10.27;60.05;101390.38;12163837;19;20109;-85
2022/11/14 18:01:45;;;;;;;11.73;8.30;;;11.20;57.80;;;10.18;60.17;101376.81;12163937;19;20019;-85
2022/11/14 18:06:19;;;;;;;14.90;8.35;;;11.20;57.80;;;9.90;60.16;101348.41;12161151;19;20843;-84
2022/11/14 18:10:40;;;;;;;13.93;9.10;;;11.10;57.70;;;9.78;59.91;101332.47;12162187;19;20390;-85
2022/11/14 18:15:00;;;;;;;10.88;8.50;;;11.10;57.80;;;10.01;60.18;101384.50;12168644;19;20018;-85